Time;durP1;ratioP1;P1;durP2;ratioP2;P2;SDS_P1;SDS_P2;PMS_P1;PMS_P2;Temp;Humidity;BMP_temperature;BMP_pressure;BME280_temperature;BME280_humidity;BME280_pressure;Samples;Min_cycle;Max_cycle;Signal;HPM_P1;HPM_P2
2022/04/28 00:01:45;;;;;;;4.80;2.85;;;;;;;;;;5047106;28;20021;-80
2022/04/28 00:04:11;;;;;;;3.85;2.15;;;;;;;;;;5042465;28;20035;-80
2022/04/28 00:06:37;;;;;;;3.63;2.85;;;;;;;;;;5043823;28;20108;-79
2022/04/28 00:09:04;;;;;;;4.13;2.55;;;;;;;;;;5041530;28;20490;-80
2022/04/28 00:11:30;;;;;;;4.57;2.38;;;;;;;;;;5037869;28;20389;-80
2022/04/28 00:13:58;;;;;;;4.68;2.25;;;;;;;;;;5043441;28;20017;-82
2022/04/28 00:16:24;;;;;;;5.07;3.30;;;;;;;;;;5041979;28;20045;-79
2022/04/28 00:18:50;;;;;;;3.83;2.35;;;;;;;;;;5044326;28;20047;-79
2022/04/28 00:21:16;;;;;;;6.05;3.00;;;;;;;;;;5045857;28;20025;-78
2022/04/28 00:23:42;;;;;;;5.95;3.08;;;;;;;;;;5042238;28;20028;-79
2022/04/28 00:26:08;;;;;;;4.25;2.65;;;;;;;;;;5040664;28;20026;-80
2022/04/28 00:28:34;;;;;;;5.38;3.22;;;;;;;;;;5046992;28;20047;-78
2022/04/28 00:31:00;;;;;;;7.68;2.50;;;;;;;;;;5036041;28;20840;-80
2022/04/28 00:33:27;;;;;;;5.10;3.00;;;;;;;;;;5043175;28;20064;-80
2022/04/28 00:35:53;;;;;;;5.25;2.83;;;;;;;;;;5046817;28;20033;-79
2022/04/28 00:38:19;;;;;;;4.90;3.28;;;;;;;;;;5044205;28;20033;-78
2022/04/28 00:40:45;;;;;;;5.93;3.13;;;;;;;;;;5046395;28;20374;-80
2022/04/28 00:43:20;;;;;;;3.63;2.28;;;;;;;;;;5038972;28;20112;-81
2022/04/28 00:45:47;;;;;;;4.10;2.17;;;;;;;;;;5038297;28;20037;-80
2022/04/28 00:50:58;;;;;;;3.47;2.00;;;;;;;;;;5045639;28;20099;-78
2022/04/28 00:53:25;;;;;;;7.45;3.95;;;;;;;;;;5039370;28;20029;-80
2022/04/28 00:55:51;;;;;;;6.05;2.42;;;;;;;;;;5041310;28;20128;-81
2022/04/28 00:58:17;;;;;;;5.18;2.90;;;;;;;;;;5045637;28;20025;-82
2022/04/28 01:00:44;;;;;;;8.70;3.40;;;;;;;;;;5031292;28;20460;-82
2022/04/28 01:03:11;;;;;;;4.20;2.95;;;;;;;;;;5042012;28;20079;-81
2022/04/28 01:05:37;;;;;;;4.28;2.63;;;;;;;;;;5038917;28;20117;-82
2022/04/28 01:08:03;;;;;;;4.38;3.00;;;;;;;;;;5041151;28;20119;-80
2022/04/28 01:10:29;;;;;;;7.40;3.70;;;;;;;;;;5037463;28;20029;-82
2022/04/28 01:12:55;;;;;;;6.85;3.30;;;;;;;;;;5043695;28;20056;-81
2022/04/28 01:15:21;;;;;;;6.88;2.78;;;;;;;;;;5035365;28;20033;-81
2022/04/28 01:17:47;;;;;;;4.68;2.33;;;;;;;;;;5041357;28;20526;-81
2022/04/28 01:20:13;;;;;;;6.20;2.85;;;;;;;;;;5040211;28;20033;-81
2022/04/28 01:22:40;;;;;;;6.10;2.78;;;;;;;;;;5043966;28;20506;-81
2022/04/28 01:25:07;;;;;;;5.03;3.35;;;;;;;;;;5042932;28;20036;-81
2022/04/28 01:27:34;;;;;;;4.38;2.13;;;;;;;;;;5043208;28;20401;-83
2022/04/28 01:30:00;;;;;;;4.40;2.50;;;;;;;;;;5037303;28;20044;-83
2022/04/28 01:32:26;;;;;;;4.85;2.58;;;;;;;;;;5042792;28;20032;-82
2022/04/28 01:34:52;;;;;;;7.45;3.22;;;;;;;;;;5042439;28;20044;-82
2022/04/28 01:37:18;;;;;;;5.68;2.90;;;;;;;;;;5042720;28;20502;-81
2022/04/28 01:39:44;;;;;;;4.90;3.03;;;;;;;;;;5035762;28;20033;-82
2022/04/28 01:42:10;;;;;;;4.40;2.63;;;;;;;;;;5046680;28;20025;-81
2022/04/28 01:44:37;;;;;;;7.88;3.53;;;;;;;;;;5048618;28;20808;-83
2022/04/28 01:47:03;;;;;;;6.72;3.70;;;;;;;;;;5042263;28;20032;-81
2022/04/28 01:49:29;;;;;;;5.63;2.70;;;;;;;;;;5043203;28;20032;-82
2022/04/28 01:54:58;;;;;;;5.95;3.33;;;;;;;;;;5040960;28;20440;-81
2022/04/28 01:57:29;;;;;;;3.53;2.63;;;;;;;;;;5045770;28;20114;-81
2022/04/28 01:59:56;;;;;;;5.75;2.97;;;;;;;;;;5044781;28;20044;-81
2022/04/28 02:02:23;;;;;;;5.47;3.55;;;;;;;;;;5040422;28;20033;-81
2022/04/28 02:04:49;;;;;;;4.07;2.40;;;;;;;;;;5044104;28;20018;-82
2022/04/28 02:07:15;;;;;;;6.28;4.15;;;;;;;;;;5045975;28;20032;-82
2022/04/28 02:09:45;;;;;;;5.05;2.78;;;3.70;99.90;;;;;;5046466;28;20036;-83
2022/04/28 02:12:13;;;;;;;5.05;3.50;;;;;;;;;;5041997;28;20025;-82
2022/04/28 02:14:39;;;;;;;7.20;3.85;;;;;;;;;;5042789;28;20400;-82
2022/04/28 02:17:06;;;;;;;5.13;2.63;;;;;;;;;;5041396;28;20623;-81
2022/04/28 02:19:32;;;;;;;6.57;3.40;;;;;;;;;;5043715;28;20048;-82
2022/04/28 02:21:58;;;;;;;6.32;3.30;;;;;;;;;;5047217;28;20020;-82
2022/04/28 02:24:24;;;;;;;4.43;2.67;;;;;;;;;;5035736;28;20025;-81
2022/04/28 02:26:50;;;;;;;5.53;3.50;;;;;;;;;;5047775;28;20025;-82
2022/04/28 02:29:16;;;;;;;5.05;3.35;;;;;;;;;;5037245;28;20377;-81
2022/04/28 02:31:44;;;;;;;5.10;3.58;;;;;;;;;;5041850;28;20023;-82
2022/04/28 02:34:10;;;;;;;5.88;3.58;;;;;;;;;;5041451;28;20087;-81
2022/04/28 02:36:36;;;;;;;3.40;2.40;;;;;;;;;;5045465;28;20033;-81
2022/04/28 02:39:03;;;;;;;5.82;3.30;;;3.60;99.90;;;;;;5048059;28;20028;-82
2022/04/28 02:41:29;;;;;;;4.47;2.90;;;;;;;;;;5045724;28;20516;-81
2022/04/28 02:43:55;;;;;;;4.68;2.65;;;;;;;;;;5041643;28;20031;-82
2022/04/28 02:46:21;;;;;;;5.63;2.95;;;;;;;;;;5038291;28;20049;-82
2022/04/28 02:48:49;;;;;;;4.43;2.47;;;;;;;;;;5042341;28;20060;-81
2022/04/28 02:51:15;;;;;;;5.90;3.63;;;;;;;;;;5039732;28;20033;-80
2022/04/28 02:53:41;;;;;;;6.90;3.35;;;;;;;;;;5039147;28;20029;-80
2022/04/28 02:56:07;;;;;;;5.60;3.33;;;;;;;;;;5037892;28;20039;-81
2022/04/28 02:58:37;;;;;;;6.05;3.22;;;;;;;;;;5038446;28;20029;-82
2022/04/28 03:01:03;;;;;;;8.07;3.78;;;;;;;;;;5039438;28;20110;-81
2022/04/28 03:03:29;;;;;;;7.78;2.85;;;;;;;;;;5041337;28;20496;-83
2022/04/28 03:11:24;;;;;;;4.38;2.28;;;;;;;;;;5042859;28;20044;-81
2022/04/28 03:13:50;;;;;;;10.02;3.22;;;;;;;;;;5041017;28;20539;-80
2022/04/28 03:16:16;;;;;;;6.85;3.42;;;;;;;;;;5039284;28;20172;-81
2022/04/28 03:18:44;;;;;;;6.63;3.55;;;;;;;;;;5045332;28;20021;-80
2022/04/28 03:21:10;;;;;;;6.32;3.40;;;;;;;;;;5041541;28;20507;-81
2022/04/28 03:23:37;;;;;;;6.60;3.28;;;;;;;;;;5041263;28;20504;-81
2022/04/28 03:26:04;;;;;;;5.85;3.03;;;;;;;;;;5036215;28;20028;-82
2022/04/28 03:28:34;;;;;;;8.45;3.63;;;;;;;;;;5042439;28;20029;-81
2022/04/28 03:31:00;;;;;;;9.60;2.97;;;;;;;;;;5035698;28;20485;-79
2022/04/28 03:33:26;;;;;;;6.93;3.25;;;;;;;;;;5044355;28;20029;-82
2022/04/28 03:35:52;;;;;;;6.65;4.18;;;;;;;;;;5041194;28;20040;-81
2022/04/28 03:38:18;;;;;;;5.93;3.50;;;;;;;;;;5039676;28;20388;-81
2022/04/28 03:40:44;;;;;;;5.53;2.95;;;;;;;;;;5041927;28;20021;-81
2022/04/28 03:43:11;;;;;;;6.65;3.28;;;;;;;;;;5040917;28;20021;-81
2022/04/28 03:45:37;;;;;;;5.07;3.25;;;;;;;;;;5035509;28;20044;-82
2022/04/28 03:48:03;;;;;;;7.53;4.72;;;;;;;;;;5044244;28;20031;-83
2022/04/28 03:50:31;;;;;;;5.82;3.40;;;;;;;;;;5037385;28;20029;-82
2022/04/28 03:52:57;;;;;;;5.07;2.88;;;;;;;;;;5037098;28;20087;-83
2022/04/28 03:55:23;;;;;;;5.10;3.97;;;;;;;;;;5031066;28;20037;-82
2022/04/28 03:57:49;;;;;;;5.28;3.40;;;;;;;;;;5040873;28;20063;-80
2022/04/28 04:00:15;;;;;;;6.90;3.95;;;;;;;;;;5034651;28;20057;-82
2022/04/28 04:02:42;;;;;;;5.30;3.75;;;;;;;;;;5042093;28;20090;-78
2022/04/28 04:05:09;;;;;;;4.35;3.00;;;;;;;;;;5040567;28;20032;-80
2022/04/28 04:07:38;;;;;;;7.55;3.47;;;;;;;;;;5044085;28;20495;-81
2022/04/28 04:10:07;;;;;;;8.48;4.65;;;;;;;;;;5039128;28;20044;-80
2022/04/28 04:12:34;;;;;;;6.05;3.00;;;;;;;;;;5036339;28;20029;-81
2022/04/28 04:15:00;;;;;;;4.32;2.85;;;;;;;;;;5038404;28;20327;-83
2022/04/28 04:17:26;;;;;;;5.85;2.83;;;;;;;;;;5038430;28;20040;-80
2022/04/28 04:19:51;;;;;;;4.15;2.70;;;;;;;;;;5040714;28;20078;-82
2022/04/28 04:22:17;;;;;;;5.38;2.92;;;;;;;;;;5038998;28;20082;-82
2022/04/28 04:24:43;;;;;;;4.53;2.25;;;;;;;;;;5035960;28;20389;-82
2022/04/28 04:27:10;;;;;;;6.38;2.97;;;;;;;;;;5037776;28;20033;-84
2022/04/28 04:29:39;;;;;;;4.32;2.55;;;;;;;;;;5025718;28;20061;-83
2022/04/28 04:32:17;;;;;;;8.13;3.72;;;;;;;;;;5024368;28;20032;-83
2022/04/28 04:34:43;;;;;;;5.47;3.20;;;;;;;;;;5029478;28;20032;-82
2022/04/28 04:37:09;;;;;;;4.75;3.33;;;;;;;;;;5037588;28;20033;-83
2022/04/28 04:39:35;;;;;;;4.75;2.97;;;;;;;;;;5037274;28;20036;-82
2022/04/28 04:42:01;;;;;;;6.10;3.25;;;;;;;;;;5044628;28;20029;-83
2022/04/28 04:44:27;;;;;;;7.85;3.75;;;;;;;;;;5041663;28;20057;-83
2022/04/28 04:46:53;;;;;;;5.35;3.17;;;;;;;;;;5037261;28;20095;-84
2022/04/28 04:49:18;;;;;;;7.10;2.58;;;;;;;;;;5029557;28;20029;-82
2022/04/28 04:51:45;;;;;;;4.88;3.05;;;;;;;;;;5041779;28;20033;-81
2022/04/28 04:54:11;;;;;;;3.83;2.63;;;;;;;;;;5038898;28;20029;-81
2022/04/28 04:56:38;;;;;;;7.07;3.88;;;;;;;;;;5045212;28;20029;-81
2022/04/28 04:59:04;;;;;;;6.78;3.13;;;;;;;;;;5044257;28;20493;-81
2022/04/28 05:01:30;;;;;;;8.90;4.65;;;;;;;;;;5041112;28;20056;-81
2022/04/28 05:03:56;;;;;;;5.10;3.10;;;;;;;;;;5039963;28;20025;-82
2022/04/28 05:06:22;;;;;;;7.80;3.92;;;;;;;;;;5041487;28;20034;-85
2022/04/28 05:08:48;;;;;;;3.45;2.70;;;;;;;;;;5043261;28;20055;-78
2022/04/28 05:11:14;;;;;;;5.00;2.63;;;;;;;;;;5038601;28;20584;-83
2022/04/28 05:13:40;;;;;;;7.05;3.58;;;;;;;;;;5040563;28;20116;-81
2022/04/28 05:16:06;;;;;;;7.03;4.32;;;;;;;;;;5050434;28;20128;-83
2022/04/28 05:18:32;;;;;;;7.43;3.75;;;;;;;;;;5052866;28;20052;-81
2022/04/28 05:21:01;;;;;;;7.63;3.55;;;;;;;;;;5034428;28;20508;-82
2022/04/28 05:23:27;;;;;;;5.90;3.70;;;;;;;;;;5049686;28;20059;-82
2022/04/28 05:25:53;;;;;;;7.55;4.78;;;;;;;;;;5047961;28;20044;-81
2022/04/28 05:28:19;;;;;;;6.95;3.90;;;;;;;;;;5048300;28;20362;-84
2022/04/28 05:30:46;;;;;;;7.03;4.03;;;;;;;;;;5047707;28;20029;-84
2022/04/28 05:33:12;;;;;;;8.43;4.22;;;;;;;;;;5048468;28;20025;-82
2022/04/28 05:35:39;;;;;;;5.35;3.55;;;;;;;;;;5054769;28;20033;-79
2022/04/28 05:38:05;;;;;;;4.55;2.47;;;;;;;;;;5043488;28;20029;-84
2022/04/28 05:40:31;;;;;;;6.03;2.88;;;;;;;;;;5046759;28;20036;-80
2022/04/28 05:45:41;;;;;;;7.15;3.58;;;;;;;;;;5047502;28;20049;-80
2022/04/28 05:48:09;;;;;;;5.63;3.28;;;;;;;;;;5053679;28;20021;-82
2022/04/28 05:50:35;;;;;;;9.70;4.47;;;;;;;;;;5050571;28;20029;-82
2022/04/28 05:53:01;;;;;;;6.03;4.25;;;;;;;;;;5052474;28;20056;-81
2022/04/28 05:55:27;;;;;;;14.93;4.95;;;;;;;;;;5045453;28;20076;-82
2022/04/28 05:57:53;;;;;;;8.20;3.95;;;;;;;;;;5048850;28;20443;-82
2022/04/28 06:00:19;;;;;;;6.03;3.00;;;;;;;;;;5049799;28;20516;-84
2022/04/28 06:02:45;;;;;;;8.90;4.13;;;;;;;;;;5051841;28;20047;-82
2022/04/28 06:05:11;;;;;;;4.38;3.35;;;;;;;;;;5048684;28;20056;-81
2022/04/28 06:07:37;;;;;;;7.63;3.53;;;;;;;;;;5054016;28;20669;-83
2022/04/28 06:10:03;;;;;;;14.60;3.67;;;;;;;;;;5050012;28;20029;-85
2022/04/28 06:12:29;;;;;;;6.10;3.58;;;;;;;;;;5044637;28;20023;-86
2022/04/28 06:14:55;;;;;;;11.63;4.57;;;;;;;;;;5048529;28;20120;-82
2022/04/28 06:17:22;;;;;;;9.60;4.20;;;;;;;;;;5049101;28;20029;-82
2022/04/28 06:19:48;;;;;;;8.20;4.05;;;;;;;;;;5052701;28;20036;-83
2022/04/28 06:22:14;;;;;;;9.20;4.05;;;;;;;;;;5044164;28;20143;-82
2022/04/28 06:24:40;;;;;;;8.93;4.50;;;;;;;;;;5051263;28;20021;-83
2022/04/28 06:27:06;;;;;;;9.65;5.18;;;;;;;;;;5046448;28;20566;-83
2022/04/28 06:29:32;;;;;;;9.45;4.75;;;;;;;;;;5050675;28;20055;-82
2022/04/28 06:31:58;;;;;;;8.70;4.40;;;;;;;;;;5050561;28;20028;-79
2022/04/28 06:34:23;;;;;;;15.85;4.75;;;5.90;99.90;;;;;;5051990;28;20112;-82
2022/04/28 06:36:49;;;;;;;8.18;4.20;;;;;;;;;;5046468;28;20035;-83
2022/04/28 06:39:15;;;;;;;10.30;5.47;;;;;;;;;;5050877;28;20043;-82
2022/04/28 06:41:41;;;;;;;9.90;5.53;;;;;;;;;;5047883;28;20075;-80
2022/04/28 06:44:07;;;;;;;8.98;4.60;;;;;;;;;;5048782;28;20021;-80
2022/04/28 06:46:33;;;;;;;9.40;5.68;;;;;;;;;;5045133;28;20075;-82
2022/04/28 06:48:59;;;;;;;8.57;5.20;;;;;;;;;;5048109;28;20025;-81
2022/04/28 06:51:25;;;;;;;12.15;4.93;;;;;;;;;;5041001;28;20084;-81
2022/04/28 06:53:51;;;;;;;8.38;4.78;;;;;;;;;;5047078;28;20036;-82
2022/04/28 06:56:17;;;;;;;8.50;4.30;;;;;;;;;;5049308;28;20974;-79
2022/04/28 06:58:43;;;;;;;8.68;4.80;;;;;;;;;;5047820;28;20032;-82
2022/04/28 07:01:09;;;;;;;7.63;3.92;;;;;;;;;;5047681;28;20040;-82
2022/04/28 07:03:35;;;;;;;7.38;3.75;;;;;;;;;;5046854;28;20017;-80
2022/04/28 07:06:01;;;;;;;7.18;4.43;;;;;;;;;;5046985;28;20025;-82
2022/04/28 07:08:27;;;;;;;7.50;3.67;;;;;;;;;;5049073;28;20029;-82
2022/04/28 07:10:53;;;;;;;7.13;4.40;;;;;;;;;;5047317;28;20021;-82
2022/04/28 07:13:19;;;;;;;7.22;4.15;;;;;;;;;;5049208;28;20092;-81
2022/04/28 07:15:45;;;;;;;7.25;3.90;;;;;;;;;;5043547;28;20135;-81
2022/04/28 07:18:11;;;;;;;8.18;4.13;;;;;;;;;;5045469;28;20040;-80
2022/04/28 07:20:38;;;;;;;5.72;3.58;;;;;;;;;;5047737;28;20037;-80
2022/04/28 07:23:04;;;;;;;4.60;3.00;;;;;;;;;;5047821;28;20025;-80
2022/04/28 07:25:30;;;;;;;6.28;3.38;;;;;;;;;;5034775;28;20021;-81
2022/04/28 07:27:56;;;;;;;6.40;3.28;;;;;;;;;;5042857;28;20051;-82
2022/04/28 07:30:23;;;;;;;7.47;3.78;;;;;;;;;;5047410;28;20037;-81
2022/04/28 07:32:51;;;;;;;6.38;3.67;;;10.30;99.90;;;;;;5045188;28;20021;-82
2022/04/28 07:35:18;;;;;;;5.95;3.33;;;10.50;99.90;;;;;;5049703;28;20071;-82
2022/04/28 07:37:44;;;;;;;8.30;3.22;;;;;;;;;;5043339;28;20078;-82
2022/04/28 07:40:11;;;;;;;7.50;3.42;;;;;;;;;;5042595;28;20068;-81
2022/04/28 07:42:37;;;;;;;6.72;3.38;;;;;;;;;;5048100;28;20013;-79
2022/04/28 07:45:03;;;;;;;7.40;3.95;;;;;;;;;;5044606;28;20033;-80
2022/04/28 07:47:30;;;;;;;5.07;2.78;;;;;;;;;;5044058;28;20044;-80
2022/04/28 07:49:56;;;;;;;5.45;3.08;;;;;;;;;;5051633;28;20029;-81
2022/04/28 07:52:22;;;;;;;5.15;2.90;;;;;;;;;;5049676;28;20485;-81
2022/04/28 07:54:48;;;;;;;5.50;2.65;;;;;;;;;;5044277;28;20033;-83
2022/04/28 07:57:15;;;;;;;7.18;3.03;;;;;;;;;;5048584;28;20061;-81
2022/04/28 07:59:41;;;;;;;5.28;2.83;;;;;;;;;;5046766;28;20013;-81
2022/04/28 08:02:11;;;;;;;5.70;2.50;;;;;;;;;;5045414;28;20536;-82
2022/04/28 08:04:37;;;;;;;5.22;3.30;;;;;;;;;;5048344;28;20063;-82
2022/04/28 08:07:03;;;;;;;6.85;3.65;;;;;;;;;;5047730;28;20416;-82
2022/04/28 08:09:30;;;;;;;4.20;2.67;;;;;;;;;;5045494;28;20493;-82
2022/04/28 08:11:56;;;;;;;5.43;2.85;;;;;;;;;;5041243;28;20041;-82
2022/04/28 08:14:25;;;;;;;4.07;2.67;;;;;;;;;;5046683;28;20440;-81
2022/04/28 08:16:55;;;;;;;2.85;1.90;;;;;;;;;;5045552;28;20041;-81
2022/04/28 08:19:22;;;;;;;4.18;2.35;;;;;;;;;;5048857;28;20029;-82
2022/04/28 08:21:48;;;;;;;4.38;2.33;;;;;;;;;;5044895;28;20090;-81
2022/04/28 08:24:14;;;;;;;4.10;2.25;;;;;;;;;;5043275;28;20029;-82
2022/04/28 08:26:40;;;;;;;3.75;1.58;;;;;;;;;;5051168;28;20036;-81
2022/04/28 08:29:06;;;;;;;3.28;1.95;;;;;;;;;;5045658;28;20049;-80
2022/04/28 08:31:32;;;;;;;2.80;1.38;;;15.30;99.90;;;;;;5045890;28;20025;-81
2022/04/28 08:33:59;;;;;;;4.47;1.65;;;;;;;;;;5044363;28;20021;-83
2022/04/28 08:36:25;;;;;;;3.70;1.60;;;;;;;;;;5049197;28;20033;-81
2022/04/28 08:38:52;;;;;;;2.92;1.73;;;;;;;;;;5047303;28;20093;-82
2022/04/28 08:41:24;;;;;;;1.90;1.25;;;;;;;;;;5043432;28;20610;-81
2022/04/28 08:43:50;;;;;;;3.55;1.58;;;;;;;;;;5047074;28;20025;-81
2022/04/28 08:49:01;;;;;;;1.52;0.90;;;;;;;;;;5054145;28;20039;-82
2022/04/28 08:51:27;;;;;;;1.55;0.85;;;;;;;;;;5049454;28;20028;-81
2022/04/28 08:53:53;;;;;;;2.38;1.60;;;;;;;;;;5052769;28;20028;-82
2022/04/28 08:56:20;;;;;;;2.58;1.15;;;;;;;;;;5045012;28;20416;-81
2022/04/28 08:58:47;;;;;;;2.00;1.15;;;27.90;42.60;;;;;;5053687;28;20033;-81
2022/04/28 09:01:13;;;;;;;3.65;1.63;;;;;;;;;;5048956;28;20029;-80
2022/04/28 09:03:40;;;;;;;3.55;1.27;;;;;;;;;;5049784;28;20017;-80
2022/04/28 09:06:19;;;;;;;1.98;1.25;;;28.90;41.80;;;;;;5048771;28;20025;-81
2022/04/28 09:08:45;;;;;;;3.55;1.58;;;;;;;;;;5049015;28;20579;-81
2022/04/28 09:11:18;;;;;;;3.42;1.25;;;;;;;;;;5046766;28;20028;-81
2022/04/28 09:16:28;;;;;;;2.83;1.23;;;;;;;;;;5042008;28;19975;-80
2022/04/28 09:18:55;;;;;;;3.13;1.27;;;;;;;;;;5048016;28;20041;-79
2022/04/28 09:21:21;;;;;;;3.40;1.23;;;;;;;;;;5049428;28;20040;-83
2022/04/28 09:23:51;;;;;;;2.22;1.13;;;;;;;;;;5049948;28;20539;-82
2022/04/28 09:26:17;;;;;;;5.03;1.00;;;;;;;;;;5045005;28;20032;-81
2022/04/28 09:28:43;;;;;;;3.00;1.48;;;;;;;;;;5051552;28;20025;-82
2022/04/28 09:31:10;;;;;;;3.05;1.48;;;;;;;;;;5050949;28;20055;-82
2022/04/28 09:33:36;;;;;;;4.43;1.98;;;20.20;54.90;;;;;;5049013;28;20552;-82
2022/04/28 09:36:04;;;;;;;3.00;1.40;;;;;;;;;;5052073;28;20081;-82
2022/04/28 09:38:30;;;;;;;2.42;1.00;;;;;;;;;;5048785;28;20029;-80
2022/04/28 09:43:41;;;;;;;1.65;1.05;;;;;;;;;;5050466;28;20113;-82
2022/04/28 09:46:08;;;;;;;4.35;1.60;;;;;;;;;;5046036;28;20539;-83
2022/04/28 09:48:36;;;;;;;3.40;1.67;;;;;;;;;;5042917;28;20033;-81
2022/04/28 09:51:09;;;;;;;5.35;1.83;;;;;;;;;;5048032;28;20116;-81
2022/04/28 09:53:37;;;;;;;3.72;1.35;;;;;;;;;;5047139;28;20037;-83
2022/04/28 09:56:04;;;;;;;2.65;1.10;;;;;;;;;;5044722;28;20041;-82
2022/04/28 09:58:30;;;;;;;2.10;0.93;;;;;;;;;;5051481;28;20032;-82
2022/04/28 10:01:00;;;;;;;1.40;0.80;;;;;;;;;;5051622;28;20447;-81
2022/04/28 10:03:28;;;;;;;2.38;1.17;;;;;;;;;;5050457;28;20115;-81
2022/04/28 10:05:56;;;;;;;4.30;1.65;;;;;;;;;;5042334;28;20515;-82
2022/04/28 10:08:22;;;;;;;2.67;1.10;;;;;;;;;;5043977;28;20049;-81
2022/04/28 10:10:49;;;;;;;4.80;1.50;;;;;;;;;;5051642;28;20499;-82
2022/04/28 10:13:15;;;;;;;3.78;1.33;;;;;;;;;;5047202;28;20021;-83
2022/04/28 10:15:42;;;;;;;3.58;1.70;;;;;;;;;;5048464;28;20040;-83
2022/04/28 10:18:09;;;;;;;2.80;1.30;;;;;;;;;;5050937;28;20029;-80
2022/04/28 10:20:37;;;;;;;3.28;1.50;;;;;;;;;;5047195;28;20525;-82
2022/04/28 10:23:05;;;;;;;4.80;1.60;;;;;;;;;;5052368;28;20032;-82
2022/04/28 10:34:15;;;;;;;2.10;1.08;;;;;;;;;;5047682;28;20039;-83
2022/04/28 10:36:55;;;;;;;4.77;1.00;;;;;;;;;;5045325;28;20564;-82
2022/04/28 10:39:38;;;;;;;3.33;1.40;;;;;;;;;;5049946;28;20029;-82
2022/04/28 10:42:14;;;;;;;5.85;1.67;;;;;;;;;;5051914;28;20075;-81
2022/04/28 10:44:42;;;;;;;3.42;1.52;;;;;;;;;;5052049;28;20132;-81
2022/04/28 10:47:08;;;;;;;2.92;1.70;;;;;;;;;;5043066;28;20052;-83
2022/04/28 10:49:43;;;;;;;4.68;1.30;;;;;;;;;;5048637;28;20037;-83
2022/04/28 10:52:21;;;;;;;1.92;1.15;;;;;;;;;;5045748;28;20134;-81
2022/04/28 10:54:47;;;;;;;2.00;1.40;;;;;;;;;;5046173;28;20085;-81
2022/04/28 10:57:13;;;;;;;2.53;1.20;;;;;;;;;;5044049;28;20089;-81
2022/04/28 10:59:40;;;;;;;2.05;1.02;;;;;;;;;;5050692;28;20020;-81
2022/04/28 11:02:15;;;;;;;2.00;1.23;;;;;;;;;;5046397;28;20116;-82
2022/04/28 11:05:03;;;;;;;3.00;1.33;;;;;;;;;;5045042;28;20048;-82
2022/04/28 11:07:29;;;;;;;5.80;1.95;;;;;;;;;;5048766;28;20025;-81
2022/04/28 11:10:00;;;;;;;2.55;1.40;;;;;;;;;;5042554;28;20032;-82
2022/04/28 11:12:32;;;;;;;2.17;1.13;;;;;;;;;;5048707;28;20035;-82
2022/04/28 11:15:00;;;;;;;2.35;1.15;;;;;;;;;;5049612;28;20047;-82
2022/04/28 11:17:30;;;;;;;3.90;1.75;;;20.10;60.10;;;;;;5045015;28;20494;-83
2022/04/28 11:19:58;;;;;;;2.17;1.30;;;;;;;;;;5050189;28;20044;-82
2022/04/28 11:22:24;;;;;;;3.03;1.73;;;;;;;;;;5047347;28;20090;-82
2022/04/28 11:24:50;;;;;;;3.65;1.45;;;;;;;;;;5050506;28;20017;-80
2022/04/28 11:27:20;;;;;;;2.65;1.33;;;19.70;57.00;;;;;;5044793;28;20033;-84
2022/04/28 11:29:46;;;;;;;3.33;1.75;;;;;;;;;;5045695;28;20044;-83
2022/04/28 11:32:13;;;;;;;2.40;1.00;;;;;;;;;;5047565;28;20025;-81
2022/04/28 11:34:40;;;;;;;3.90;1.27;;;;;;;;;;5050459;28;20029;-83
2022/04/28 11:37:13;;;;;;;2.00;1.23;;;;;;;;;;5047759;28;20046;-83
2022/04/28 11:39:39;;;;;;;2.08;1.27;;;;;;;;;;5049217;28;20029;-83
2022/04/28 11:42:09;;;;;;;3.08;1.20;;;19.50;54.20;;;;;;5044020;28;20021;-82
2022/04/28 11:44:35;;;;;;;2.65;1.17;;;;;;;;;;5043950;28;20154;-82
2022/04/28 11:47:01;;;;;;;1.85;0.80;;;;;;;;;;5046784;28;20576;-82
2022/04/28 11:49:33;;;;;;;2.58;1.30;;;;;;;;;;5051324;28;20067;-81
2022/04/28 11:52:00;;;;;;;5.00;1.58;;;;;;;;;;5044992;28;20033;-82
2022/04/28 11:54:27;;;;;;;2.28;1.13;;;;;;;;;;5045098;28;20128;-83
2022/04/28 11:57:09;;;;;;;3.63;1.10;;;;;;;;;;5042701;28;20113;-83
2022/04/28 11:59:38;;;;;;;4.13;1.80;;;;;;;;;;5046753;28;20029;-83
2022/04/28 12:02:04;;;;;;;3.22;1.70;;;;;;;;;;5048343;28;20053;-82
2022/04/28 12:04:30;;;;;;;1.80;0.82;;;;;;;;;;5051057;28;20020;-82
2022/04/28 12:06:56;;;;;;;3.85;1.00;;;;;;;;;;5046294;28;20627;-81
2022/04/28 12:14:55;;;;;;;3.60;1.30;;;;;;;;;;5043411;28;20032;-84
2022/04/28 12:20:10;;;;;;;2.70;1.52;;;;;;;;;;5047862;28;20040;-82
2022/04/28 12:22:38;;;;;;;2.97;1.23;;;;;;;;;;5044671;28;20075;-81
2022/04/28 12:25:05;;;;;;;3.25;1.50;;;;;;;;;;5046814;28;20035;-82
2022/04/28 12:27:40;;;;;;;4.22;1.15;;;;;;;;;;5049419;28;20048;-80
2022/04/28 12:30:10;;;;;;;1.70;0.93;;;;;;;;;;5045509;28;20032;-83
2022/04/28 12:32:43;;;;;;;2.47;1.40;;;;;;;;;;5049029;28;20024;-82
2022/04/28 12:35:09;;;;;;;2.25;1.33;;;;;;;;;;5047707;28;20037;-81
2022/04/28 12:37:38;;;;;;;5.18;1.85;;;;;;;;;;5042992;28;20033;-80
2022/04/28 12:40:05;;;;;;;2.40;1.40;;;;;;;;;;5053545;28;20057;-80
2022/04/28 12:42:44;;;;;;;3.22;1.77;;;;;;;;;;5042972;28;20124;-82
2022/04/28 12:45:11;;;;;;;3.28;1.15;;;;;;;;;;5041943;28;20037;-82
2022/04/28 12:47:39;;;;;;;2.83;1.58;;;;;;;;;;5043330;28;20070;-81
2022/04/28 12:50:19;;;;;;;2.72;1.77;;;;;;;;;;5050584;28;20089;-82
2022/04/28 12:52:45;;;;;;;2.13;1.08;;;;;;;;;;5044269;28;20063;-81
2022/04/28 12:55:11;;;;;;;2.45;1.25;;;;;;;;;;5039724;28;20401;-82
2022/04/28 12:57:37;;;;;;;3.90;1.73;;;;;;;;;;5042346;28;20024;-81
2022/04/28 13:00:04;;;;;;;3.05;1.58;;;;;;;;;;5047061;28;20025;-81
2022/04/28 13:02:31;;;;;;;2.03;1.10;;;;;;;;;;5040140;28;20074;-82
2022/04/28 13:05:17;;;;;;;2.30;1.67;;;;;;;;;;5044238;28;20033;-80
2022/04/28 13:07:43;;;;;;;2.95;1.48;;;;;;;;;;5049010;28;20485;-80
2022/04/28 13:10:10;;;;;;;3.83;1.70;;;;;;;;;;5046160;28;20029;-80
2022/04/28 13:12:37;;;;;;;4.55;1.70;;;;;;;;;;5042826;28;20041;-80
2022/04/28 13:15:06;;;;;;;4.38;1.70;;;20.30;53.90;;;;;;5045887;28;20052;-80
2022/04/28 13:17:32;;;;;;;2.50;1.35;;;;;;;;;;5047210;28;20060;-81
2022/04/28 13:19:58;;;;;;;1.92;1.08;;;;;;;;;;5048511;28;20021;-82
2022/04/28 13:22:24;;;;;;;3.08;1.80;;;;;;;;;;5042205;28;20033;-81
2022/04/28 13:24:50;;;;;;;2.58;1.50;;;;;;;;;;5047263;28;20043;-81
2022/04/28 13:27:17;;;;;;;2.80;1.67;;;;;;;;;;5048756;28;20061;-82
2022/04/28 13:29:44;;;;;;;2.70;1.45;;;;;;;;;;5048456;28;20457;-81
2022/04/28 13:32:10;;;;;;;2.72;1.02;;;;;;;;;;5041021;28;20040;-82
2022/04/28 13:34:36;;;;;;;4.88;1.70;;;;;;;;;;5044073;28;20108;-81
2022/04/28 13:37:03;;;;;;;2.97;1.27;;;;;;;;;;5050344;28;20040;-81
2022/04/28 13:39:29;;;;;;;2.40;1.13;;;;;;;;;;5049583;28;20380;-81
2022/04/28 13:41:55;;;;;;;3.05;1.42;;;;;;;;;;5045715;28;20033;-82
2022/04/28 13:44:21;;;;;;;3.72;1.67;;;;;;;;;;5050442;28;20053;-82
2022/04/28 13:46:47;;;;;;;2.42;1.48;;;;;;;;;;5046564;28;20028;-81
2022/04/28 13:49:13;;;;;;;1.55;0.88;;;;;;;;;;5046342;28;20022;-81
2022/04/28 13:51:40;;;;;;;2.28;1.33;;;;;;;;;;5049694;28;20032;-80
2022/04/28 13:54:06;;;;;;;3.88;1.60;;;;;;;;;;5050799;28;20552;-82
2022/04/28 13:56:32;;;;;;;6.13;1.60;;;;;;;;;;5053460;28;20041;-82
2022/04/28 13:58:58;;;;;;;2.20;1.20;;;;;;;;;;5049314;28;20037;-81
2022/04/28 14:01:24;;;;;;;2.15;1.17;;;;;;;;;;5047352;28;20029;-82
2022/04/28 14:03:50;;;;;;;1.70;0.80;;;;;;;;;;5046899;28;20504;-81
2022/04/28 14:06:16;;;;;;;2.10;0.90;;;;;;;;;;5051465;28;20194;-81
2022/04/28 14:08:42;;;;;;;2.50;1.65;;;;;;;;;;5053925;28;20025;-82
2022/04/28 14:11:09;;;;;;;2.30;1.05;;;;;;;;;;5049615;28;20171;-81
2022/04/28 14:13:35;;;;;;;1.60;1.00;;;;;;;;;;5053843;28;20067;-82
2022/04/28 14:16:02;;;;;;;2.45;1.02;;;;;;;;;;5047293;28;20037;-82
2022/04/28 14:18:29;;;;;;;1.50;0.90;;;;;;;;;;5039371;28;20048;-82
2022/04/28 14:20:56;;;;;;;2.25;1.08;;;;;;;;;;5050973;28;20120;-82
2022/04/28 14:23:23;;;;;;;2.10;1.02;;;;;;;;;;5044813;28;20082;-83
2022/04/28 14:25:49;;;;;;;3.60;1.02;;;;;;;;;;5050013;28;20461;-82
2022/04/28 14:28:15;;;;;;;3.05;1.10;;;;;;;;;;5050930;28;20067;-82
2022/04/28 14:30:42;;;;;;;3.35;1.20;;;;;;;;;;5050190;28;20045;-82
2022/04/28 14:33:09;;;;;;;1.20;0.75;;;;;;;;;;5048342;28;20029;-82
2022/04/28 14:35:36;;;;;;;3.03;1.35;;;;;;;;;;5051757;28;20033;-82
2022/04/28 14:38:02;;;;;;;2.40;1.10;;;20.10;52.60;;;;;;5048142;28;20029;-83
2022/04/28 14:40:28;;;;;;;2.40;1.30;;;;;;;;;;5046280;28;20108;-81
2022/04/28 14:42:54;;;;;;;2.67;1.23;;;;;;;;;;5048664;28;20028;-81
2022/04/28 14:45:20;;;;;;;3.00;0.95;;;;;;;;;;5048146;28;20110;-84
2022/04/28 14:47:46;;;;;;;2.20;0.68;;;;;;;;;;5041096;28;20470;-84
2022/04/28 14:52:57;;;;;;;2.13;1.00;;;;;;;;;;5048653;28;20086;-83
2022/04/28 14:55:23;;;;;;;4.28;1.70;;;;;;;;;;5049878;28;20404;-83
2022/04/28 14:57:50;;;;;;;5.47;1.73;;;;;;;;;;5043560;28;20029;-83
2022/04/28 15:00:18;;;;;;;2.00;1.08;;;;;;;;;;5050233;28;20413;-82
2022/04/28 15:02:45;;;;;;;4.80;1.25;;;;;;;;;;5048419;28;20112;-85
2022/04/28 15:05:11;;;;;;;2.22;1.30;;;;;;;;;;5038180;28;20028;-85
2022/04/28 15:07:38;;;;;;;2.50;1.60;;;;;;;;;;5046408;28;20132;-82
2022/04/28 15:10:05;;;;;;;2.45;1.48;;;;;;;;;;5049606;28;20052;-85
2022/04/28 15:12:32;;;;;;;3.15;1.33;;;;;;;;;;5042187;28;20036;-83
2022/04/28 15:15:01;;;;;;;1.88;0.85;;;;;;;;;;5049787;28;20038;-84
2022/04/28 15:17:30;;;;;;;3.03;1.38;;;;;;;;;;5038635;28;20043;-82
2022/04/28 15:19:56;;;;;;;2.28;1.00;;;;;;;;;;5040826;28;20067;-83